Time;durP1;ratioP1;P1;durP2;ratioP2;P2;SDS_P1;SDS_P2;PMS_P1;PMS_P2;Temp;Humidity;BMP_temperature;BMP_pressure;BME280_temperature;BME280_humidity;BME280_pressure;Samples;Min_cycle;Max_cycle;Signal;HPM_P1;HPM_P2
2022/05/07 00:02:06;;;;;;;29.32;22.15;;;;;;;8.49;62.89;100868.59;1588734;89;25523;-70
2022/05/07 00:07:14;;;;;;;30.52;21.60;;;;;;;8.43;62.51;100867.04;1588589;90;26397;-70
2022/05/07 00:09:41;;;;;;;32.50;23.05;;;;;;;8.39;62.65;100868.63;1588756;89;25745;-70
2022/05/07 00:12:09;;;;;;;31.55;22.95;;;;;;;8.35;63.01;100868.39;1588812;89;25641;-71
2022/05/07 00:14:35;;;;;;;37.15;23.45;;;;;;;8.30;62.83;100868.98;1588565;89;25764;-71
2022/05/07 00:19:47;;;;;;;30.80;22.52;;;;;;;8.22;62.99;100872.53;1588903;89;27593;-71
2022/05/07 00:22:14;;;;;;;40.12;23.83;;;;;;;8.17;62.95;100873.91;1588802;90;32783;-71
2022/05/07 00:24:40;;;;;;;36.55;24.55;;;;;;;8.13;63.38;100872.04;1589075;89;25443;-73
2022/05/07 00:27:06;;;;;;;38.92;22.93;;;;;;;8.08;63.91;100872.86;1589071;89;25540;-71
2022/05/07 00:29:33;;;;;;;33.63;22.77;;;;;;;8.03;63.69;100869.64;1589125;89;32390;-71
2022/05/07 00:31:59;;;;;;;38.80;23.38;;;;;;;7.99;64.05;100874.54;1589060;89;27544;-71
2022/05/07 00:34:26;;;;;;;33.85;21.37;;;;;;;7.93;64.04;100873.73;1588962;90;25692;-71
2022/05/07 00:36:52;;;;;;;34.98;22.20;;;;;;;7.91;63.67;100868.38;1589096;89;25447;-71
2022/05/07 00:39:18;;;;;;;33.33;22.42;;;;;;;7.86;64.04;100863.81;1589074;89;25603;-71
2022/05/07 00:41:44;;;;;;;31.75;21.97;;;;;;;7.81;63.83;100862.49;1589104;90;25184;-71
2022/05/07 00:44:10;;;;;;;33.10;22.27;;;;;;;7.76;64.16;100858.47;1589075;89;28285;-71
2022/05/07 00:46:36;;;;;;;30.80;21.70;;;;;;;7.73;63.90;100863.89;1589016;90;32840;-70
2022/05/07 00:49:02;;;;;;;29.80;21.73;;;;;;;7.72;64.41;100868.20;1589127;89;25451;-72
2022/05/07 00:51:35;;;;;;;34.75;23.27;;;;;;;7.67;64.75;100859.04;1589081;89;34816;-71
2022/05/07 00:54:05;;;;;;;31.48;21.35;;;;;;;7.64;64.88;100858.27;1589124;89;25581;-71
2022/05/07 00:56:33;;;;;;;30.97;20.60;;;;;;;7.59;64.42;100861.50;1589106;89;27453;-71
2022/05/07 00:59:00;;;;;;;31.42;20.43;;;;;;;7.55;64.26;100859.90;1589064;89;25666;-71
2022/05/07 01:01:27;;;;;;;32.95;20.92;;;;;;;7.52;64.39;100863.13;1589100;89;25610;-72
2022/05/07 01:03:54;;;;;;;30.55;20.65;;;;;;;7.47;65.09;100859.94;1574772;88;26162;-71
2022/05/07 01:06:21;;;;;;;29.65;20.57;;;;;;;7.43;65.03;100851.33;1589188;90;25511;-71
2022/05/07 01:08:49;;;;;;;26.80;20.15;;;;;;;7.39;65.13;100847.56;1574889;90;27507;-71
2022/05/07 01:11:17;;;;;;;29.32;20.62;;;;;;;7.36;65.43;100852.97;1574729;90;25786;-72
2022/05/07 01:13:45;;;;;;;33.38;20.32;;;;;;;7.33;65.32;100852.16;1589047;89;25632;-71
2022/05/07 01:16:14;;;;;;;29.18;20.57;;;;;;;7.27;65.47;100850.03;1589116;89;25683;-73
2022/05/07 01:18:42;;;;;;;30.60;20.12;;;;;;;7.23;65.54;100851.63;1589317;90;32843;-72
2022/05/07 01:21:16;;;;;;;28.98;20.20;;;;;;;7.23;65.78;100862.95;1589087;89;27479;-72
2022/05/07 01:23:47;;;;;;;26.45;19.95;;;;;;;7.22;65.53;100858.11;1588958;90;25698;-71
2022/05/07 01:26:16;;;;;;;28.27;20.32;;;;;;;7.19;65.54;100854.62;1589076;90;25498;-71
2022/05/07 01:28:44;;;;;;;31.48;20.12;;;;;;;7.19;65.47;100857.86;1589136;90;26329;-71
2022/05/07 01:31:10;;;;;;;26.35;20.37;;;;;;;7.18;65.51;100867.79;1589072;89;25662;-71
2022/05/07 01:33:38;;;;;;;30.40;20.85;;;;;;;7.16;66.02;100865.92;1589099;89;27526;-73
2022/05/07 01:36:16;;;;;;;35.73;21.40;;;;;;;7.14;66.23;100861.91;1589018;89;25452;-71
2022/05/07 01:38:40;;;;;;;27.70;20.48;;;;;;;7.13;65.90;100862.97;1589023;89;25460;-71
2022/05/07 01:41:06;;;;;;;30.60;20.48;;;;;;;7.09;66.29;100864.05;1589203;89;35509;-71
2022/05/07 01:43:34;;;;;;;31.20;20.82;;;;;;;7.06;66.23;100860.00;1589164;89;25447;-71
2022/05/07 01:46:01;;;;;;;33.40;21.35;;;;;;;7.04;66.42;100864.86;1589179;90;27574;-71
2022/05/07 01:48:28;;;;;;;27.85;21.20;;;;;;;7.00;66.18;100862.45;1589089;90;25608;-71
2022/05/07 01:50:54;;;;;;;30.72;22.52;;;;;;;6.96;66.40;100856.53;1589121;90;25452;-71
2022/05/07 01:53:22;;;;;;;31.12;21.57;;;;;;;6.93;66.52;100861.92;1589104;89;34884;-71
2022/05/07 01:55:48;;;;;;;29.32;21.37;;;;;;;6.90;66.54;100853.84;1589232;90;25650;-71
2022/05/07 01:58:14;;;;;;;30.08;20.95;;;;;;;6.87;66.63;100849.55;1589136;89;28265;-71
2022/05/07 02:00:43;;;;;;;32.95;21.97;;;;;;;6.82;66.38;100850.35;1587804;89;25641;-71
2022/05/07 02:03:10;;;;;;;36.90;22.42;;;;;;;6.80;66.47;100849.02;1589293;90;25495;-71
2022/05/07 02:05:36;;;;;;;32.40;21.95;;;;;;;6.73;66.46;100847.41;1589025;89;35258;-71
2022/05/07 02:08:03;;;;;;;31.68;22.05;;;;;;;6.72;66.76;100839.60;1589160;89;25450;-71
2022/05/07 02:10:29;;;;;;;32.23;21.80;;;;;;;6.70;66.94;100837.18;1589187;89;27492;-71
2022/05/07 02:12:56;;;;;;;33.85;21.42;;;;;;;6.67;66.96;100837.71;1589079;89;25495;-71
2022/05/07 02:15:22;;;;;;;33.80;22.20;;;;;;;6.62;67.23;100836.38;1589088;90;25486;-71
2022/05/07 02:17:48;;;;;;;32.38;22.40;;;;;;;6.60;67.12;100837.18;1589121;89;25560;-71
2022/05/07 02:20:14;;;;;;;33.42;22.07;;;;;;;6.57;67.19;100835.02;1589160;89;32769;-71
2022/05/07 02:22:40;;;;;;;32.10;21.48;;;;;;;6.55;67.30;100841.21;1589129;90;28206;-71
2022/05/07 02:25:09;;;;;;;29.75;20.48;;;;;;;6.53;67.59;100837.45;1589055;89;32900;-70
2022/05/07 02:27:35;;;;;;;31.68;22.05;;;;;;;6.50;67.71;100837.18;1589108;89;25524;-70
2022/05/07 02:30:03;;;;;;;34.90;22.87;;;;;;;6.48;67.83;100840.67;1589112;90;25603;-70
2022/05/07 02:32:29;;;;;;;33.92;22.02;;;;;;;6.44;67.89;100836.92;1589150;89;25463;-70
2022/05/07 02:34:55;;;;;;;33.02;22.00;;;;;;;6.41;67.92;100836.11;1589070;89;27508;-71
2022/05/07 02:37:21;;;;;;;28.25;20.80;;;;;;;6.38;67.69;100840.13;1589043;90;33149;-71
2022/05/07 02:39:48;;;;;;;32.73;21.33;;;;;;;6.38;67.69;100836.64;1589136;90;25650;-71
2022/05/07 02:44:59;;;;;;;31.55;21.52;;;;;;;6.34;67.95;100835.83;1589179;89;25673;-71
2022/05/07 02:47:25;;;;;;;32.13;21.75;;;;;;;6.33;67.82;100838.77;1589111;90;27494;-70
2022/05/07 02:49:51;;;;;;;31.27;21.65;;;;;;;6.31;68.26;100840.38;1589034;89;25918;-71
2022/05/07 02:52:17;;;;;;;36.68;21.45;;;;;;;6.29;67.91;100834.48;1589146;90;25517;-71
2022/05/07 02:54:43;;;;;;;30.40;20.88;;;;;;;6.27;67.86;100839.86;1589082;89;25549;-70
2022/05/07 02:57:09;;;;;;;32.10;21.80;;;;;;;6.26;68.21;100844.41;1589117;89;32391;-71
2022/05/07 02:59:38;;;;;;;37.73;22.40;;;;;;;6.23;68.04;100844.96;1589094;89;27672;-71
2022/05/07 03:02:04;;;;;;;30.45;21.10;;;;;;;6.22;68.17;100847.36;1587710;89;25590;-71
2022/05/07 03:04:30;;;;;;;28.57;20.72;;;;;;;6.20;68.17;100846.00;1589349;89;25491;-70
2022/05/07 03:06:56;;;;;;;28.85;20.52;;;;;;;6.19;68.24;100843.86;1596201;89;25637;-70
2022/05/07 03:09:22;;;;;;;32.20;20.12;;;;;;;6.16;68.32;100846.56;1596200;89;32297;-70
2022/05/07 03:11:49;;;;;;;30.35;20.25;;;;;;;6.14;68.35;100846.54;1596162;89;27503;-71
2022/05/07 03:14:15;;;;;;;28.30;19.90;;;;;;;6.12;68.41;100843.31;1596079;89;25600;-71
2022/05/07 03:16:41;;;;;;;31.50;20.77;;;;;;;6.10;68.40;100844.13;1596191;89;25612;-70
2022/05/07 03:19:08;;;;;;;32.08;20.00;;;;;;;6.08;68.38;100850.27;1596111;89;34834;-71
2022/05/07 03:21:34;;;;;;;27.50;19.80;;;;;;;6.07;68.29;100852.16;1596259;89;25615;-70
2022/05/07 03:24:02;;;;;;;36.63;20.17;;;;;;;6.07;68.27;100848.68;1596166;89;27494;-70
2022/05/07 03:26:28;;;;;;;34.73;20.43;;;;;;;6.08;68.40;100856.98;1596094;89;25905;-70
2022/05/07 03:28:54;;;;;;;29.65;20.43;;;;;;;6.08;68.51;100855.64;1596155;89;25591;-70
2022/05/07 03:31:20;;;;;;;28.73;20.48;;;;;;;6.10;69.01;100860.24;1596106;89;25584;-70
2022/05/07 03:33:47;;;;;;;27.13;19.92;;;;;;;6.11;69.05;100861.32;1596164;89;32478;-71
2022/05/07 03:36:19;;;;;;;34.73;20.55;;;;;;;6.14;69.16;100862.66;1596117;89;27569;-70
2022/05/07 03:38:45;;;;;;;32.67;20.50;;;;;;;6.18;69.30;100863.76;1583987;89;25544;-70
2022/05/07 03:41:11;;;;;;;31.20;20.55;;;;;;;6.24;69.23;100867.25;1596143;89;25536;-70
2022/05/07 03:43:39;;;;;;;31.42;21.30;;;;;;;6.25;69.18;100866.16;1596123;89;35169;-71
2022/05/07 03:46:05;;;;;;;30.45;20.48;;;;;;;6.27;69.52;100868.87;1596183;89;25534;-71
2022/05/07 03:48:32;;;;;;;33.10;19.75;;;;;;;6.28;69.32;100859.75;1596148;89;27674;-71
2022/05/07 03:50:59;;;;;;;36.75;20.43;;;;;;;6.28;69.40;100858.41;1596063;89;25790;-70
2022/05/07 03:53:31;;;;;;;32.50;21.77;;;;;;;6.30;69.48;100860.80;1596170;89;25254;-71
2022/05/07 03:56:07;;;;;;;31.80;20.75;;;;;;;6.32;69.90;100860.81;1596101;89;25657;-71
2022/05/07 03:58:35;;;;;;;30.43;20.60;;;;;;;6.32;70.07;100858.13;1596193;89;25448;-71
2022/05/07 04:01:02;;;;;;;32.00;20.20;;;;;;;6.35;69.90;100863.49;1594885;88;27553;-71
2022/05/07 04:03:30;;;;;;;31.42;20.82;;;;;;;6.38;70.26;100866.99;1596068;89;25597;-71
2022/05/07 04:05:57;;;;;;;38.33;24.55;;;;;;;6.42;70.08;100864.58;1596040;89;25690;-71
2022/05/07 04:08:23;;;;;;;34.13;25.10;;;;;;;6.47;70.32;100867.27;1596117;89;26390;-71
2022/05/07 04:10:51;;;;;;;34.55;22.20;;;;;;;6.50;70.47;100867.57;1596169;89;25705;-71
2022/05/07 04:13:18;;;;;;;42.90;24.45;;;;;;;6.54;70.80;100868.64;1596155;89;28116;-71
2022/05/07 04:15:45;;;;;;;42.27;26.50;;;;;;;6.58;70.73;100872.14;1596026;89;25428;-71
2022/05/07 04:18:11;;;;;;;40.38;25.70;;;;;;;6.62;70.90;100871.86;1596132;89;25495;-71
2022/05/07 04:20:39;;;;;;;35.35;24.40;;;;;;;6.68;71.14;100867.56;1596107;89;26250;-71
2022/05/07 04:23:05;;;;;;;36.15;26.35;;;;;;;6.76;71.27;100884.23;1596138;89;25456;-71
2022/05/07 04:25:32;;;;;;;39.15;25.25;;;;;;;6.83;71.61;100876.73;1596109;89;27553;-71
2022/05/07 04:27:58;;;;;;;32.48;24.80;;;;;;;6.93;72.10;100879.41;1596051;89;25488;-70
2022/05/07 04:30:25;;;;;;;43.28;27.65;;;;;;;7.03;72.70;100882.09;1596118;89;25636;-71
2022/05/07 04:32:51;;;;;;;39.95;26.82;;;;;;;7.14;72.86;100882.88;1596123;89;25647;-71
2022/05/07 04:35:17;;;;;;;40.17;26.05;;;;;;;7.25;73.27;100881.80;1596100;89;25598;-71
2022/05/07 04:37:43;;;;;;;46.50;27.07;;;;;;;7.38;73.55;100893.86;1596148;89;28153;-71
2022/05/07 04:40:10;;;;;;;38.75;25.35;;;;;;;7.51;73.72;100895.70;1596022;89;32821;-70
2022/05/07 04:42:37;;;;;;;36.93;25.27;;;;;;;7.66;74.00;100891.63;1596110;89;25673;-70
2022/05/07 04:45:06;;;;;;;44.63;27.98;;;;;;;7.79;73.98;100899.67;1596097;89;25542;-70
2022/05/07 04:47:32;;;;;;;38.13;26.90;;;;;;;7.95;74.30;100888.28;1596138;89;25590;-71
2022/05/07 04:49:59;;;;;;;44.65;27.22;;;;;;;8.27;74.66;100895.93;1596165;89;27463;-71
2022/05/07 04:52:26;;;;;;;36.58;25.92;;;;;;;8.27;74.66;100895.93;1596214;89;25631;-71
2022/05/07 04:54:53;;;;;;;41.55;26.12;;;;;;;8.46;74.68;100906.89;1596247;89;25462;-70
2022/05/07 04:57:20;;;;;;;44.03;28.10;;;;;;;8.63;74.90;100906.52;1596234;89;25613;-70
2022/05/07 04:59:46;;;;;;;48.58;27.93;;;;;;;8.79;74.66;100900.48;1596254;89;25510;-71
2022/05/07 05:02:12;;;;;;;50.63;29.07;;;;;;;8.95;74.67;100909.24;1595316;87;27479;-69
2022/05/07 05:04:41;;;;;;;45.30;29.00;;;;;;;9.13;74.61;100902.36;1596269;89;25620;-71
2022/05/07 05:07:07;;;;;;;40.65;27.90;;;;;;;9.29;74.55;100909.75;1596505;89;25589;-71
2022/05/07 05:09:33;;;;;;;47.67;28.32;;;;;;;9.46;74.58;100910.66;1596418;89;35120;-70
2022/05/07 05:12:08;;;;;;;41.10;29.67;;;;;;;9.64;74.64;100912.63;1596870;89;25219;-72
2022/05/07 05:17:20;;;;;;;46.88;28.95;;;;;;;10.01;74.33;100915.70;1596081;89;25772;-71
2022/05/07 05:19:46;;;;;;;42.17;30.17;;;;;;;10.23;74.14;100919.20;1596435;89;25620;-71
2022/05/07 05:22:12;;;;;;;42.88;28.95;;;;;;;10.40;73.99;100915.50;1596390;89;35187;-71
2022/05/07 05:24:40;;;;;;;40.33;28.42;;;;;;;10.63;73.99;100919.76;1596457;89;25598;-71
2022/05/07 05:27:06;;;;;;;41.80;28.65;;;;;;;10.83;73.65;100914.03;1596190;89;27512;-69
2022/05/07 05:29:32;;;;;;;46.33;28.57;;;;;;;11.08;73.50;100921.46;1596162;89;25745;-70
2022/05/07 05:31:59;;;;;;;43.40;28.42;;;;;;;11.31;73.43;100914.30;1596225;89;29725;-69
2022/05/07 05:34:27;;;;;;;41.40;29.87;;;;;;;11.56;73.32;100910.33;1596191;89;25521;-69
2022/05/07 05:36:53;;;;;;;38.78;28.67;;;;;;;11.83;72.96;100911.41;1596371;89;25489;-70
2022/05/07 05:39:19;;;;;;;40.05;28.92;;;;;;;12.09;72.72;100920.42;1583602;89;27512;-69
2022/05/07 05:41:45;;;;;;;41.37;27.60;;;;;;;12.34;72.21;100914.98;1596531;89;25670;-71
2022/05/07 05:44:11;;;;;;;41.92;27.65;;;;;;;12.60;71.75;100926.08;1596239;89;25436;-71
2022/05/07 05:46:38;;;;;;;36.45;26.90;;;;;;;12.82;70.94;100920.39;1596265;89;25572;-70
2022/05/07 05:49:04;;;;;;;39.83;27.10;;;;;;;13.05;70.58;100917.91;1583552;89;25672;-70
2022/05/07 05:51:31;;;;;;;40.00;27.60;;;;;;;13.29;70.21;100920.05;1596323;89;28268;-70
2022/05/07 05:53:57;;;;;;;39.78;26.07;;;;;;;13.50;69.14;100923.88;1596187;89;32965;-71
2022/05/07 05:56:23;;;;;;;35.60;25.60;;;;;;;13.70;68.56;100915.70;1596353;89;25452;-71
2022/05/07 05:58:50;;;;;;;36.08;25.00;;;;;;;13.90;67.85;100923.05;1596314;89;26274;-70
2022/05/07 06:01:16;;;;;;;36.17;24.85;;;;;;;14.07;66.93;100918.21;1596339;88;25488;-69
2022/05/07 06:03:42;;;;;;;31.95;25.55;;;;;;;14.24;67.09;100920.16;1596306;88;27559;-70
2022/05/07 06:06:08;;;;;;;34.25;24.23;;;;;;;14.45;66.95;100923.84;1594412;89;32888;-69
2022/05/07 06:08:34;;;;;;;35.45;22.42;;;;;;;14.65;66.64;100920.28;1589210;90;25407;-69
2022/05/07 06:11:05;;;;;;;29.48;22.00;;;;;;;14.88;66.64;100927.70;1589290;89;26255;-71
2022/05/07 06:13:33;;;;;;;35.35;22.77;;;;;;;15.12;65.96;100925.83;1589373;89;25698;-71
2022/05/07 06:15:59;;;;;;;34.30;22.87;;;;;;;15.36;65.64;100918.47;1589182;90;28179;-69
2022/05/07 06:18:26;;;;;;;32.08;21.97;;;;;;;15.61;64.78;100925.50;1589146;89;25603;-69
2022/05/07 06:20:52;;;;;;;25.95;20.15;;;;;;;15.85;64.20;100929.02;1589171;90;25620;-70
2022/05/07 06:23:19;;;;;;;28.60;19.87;;;;;;;16.11;63.55;100927.52;1589256;90;25644;-70
2022/05/07 06:28:30;;;;;;;27.25;18.95;;;;;;;16.60;62.32;100922.34;1589337;90;27573;-69
2022/05/07 06:30:56;;;;;;;26.02;16.37;;;;;;;16.94;61.57;100921.83;1589230;90;27353;-69
2022/05/07 06:33:22;;;;;;;32.60;17.07;;;;;;;17.23;60.28;100921.45;1589337;89;25507;-69
2022/05/07 06:35:49;;;;;;;28.70;17.48;;;;;;;17.50;59.38;100921.92;1589264;89;25594;-69
2022/05/07 06:38:16;;;;;;;27.77;15.80;;;;;;;17.77;58.65;100920.45;1589302;89;25492;-68
2022/05/07 06:40:44;;;;;;;22.35;14.35;;;;;;;17.94;56.74;100929.02;1589282;90;27650;-70
2022/05/07 06:43:10;;;;;;;28.83;14.13;;;;;;;18.14;56.62;100924.55;1589231;89;25596;-69
2022/05/07 06:45:37;;;;;;;25.27;14.07;;;;;;;18.38;56.26;100918.80;1589227;90;25469;-70
2022/05/07 06:48:08;;;;;;;20.50;11.65;;;;;;;18.68;55.70;100924.75;1589096;89;26145;-70
2022/05/07 06:50:33;;;;;;;22.25;12.23;;;;;;;18.97;53.76;100927.73;1589135;88;25645;-70
2022/05/07 06:52:59;;;;;;;22.10;13.10;;;;;;;19.14;52.10;100925.82;1589162;89;28151;-69
2022/05/07 06:55:25;;;;;;;21.50;12.98;;;;;;;19.27;51.77;100921.83;1589069;90;25584;-70
2022/05/07 06:57:53;;;;;;;19.25;12.63;;;;;;;19.46;51.50;100924.45;1589166;90;25669;-70
2022/05/07 07:00:19;;;;;;;30.12;16.75;;;;;;;19.68;51.09;100923.84;1589146;89;25654;-70
2022/05/07 07:02:45;;;;;;;36.83;19.80;;;;;;;19.95;50.83;100929.02;1589161;89;25495;-70
2022/05/07 07:05:11;;;;;;;22.07;10.53;;;;;;;20.26;49.77;100931.45;1589152;89;27457;-71
2022/05/07 07:07:37;;;;;;;22.50;12.40;;;;;;;20.50;48.50;100932.34;1588959;89;25591;-70
2022/05/07 07:10:05;;;;;;;17.57;10.63;;;;;;;20.75;48.41;100927.95;1589081;88;25492;-71
2022/05/07 07:12:31;;;;;;;19.42;9.20;;;;;;;21.04;47.78;100925.97;1589211;90;25661;-70
2022/05/07 07:14:57;;;;;;;14.43;9.70;;;;;;;21.31;46.86;100932.91;1589110;89;25690;-70
2022/05/07 07:17:25;;;;;;;12.47;8.95;;;;;;;21.38;45.64;100931.64;1589110;89;28265;-72
2022/05/07 07:19:51;;;;;;;17.40;8.45;;;;;;;21.40;44.47;100926.59;1589039;90;25799;-70
2022/05/07 07:22:17;;;;;;;16.27;9.25;;;;;;;21.45;44.74;100932.34;1589129;89;25595;-70
2022/05/07 07:24:43;;;;;;;15.88;8.78;;;;;;;21.59;44.98;100929.88;1589085;90;25586;-70
2022/05/07 07:27:09;;;;;;;16.27;8.20;;;;;;;21.74;41.44;100936.41;1589023;89;25658;-70
2022/05/07 07:29:35;;;;;;;10.95;7.80;;;;;;;21.69;43.22;100934.53;1589084;90;27562;-70
2022/05/07 07:32:02;;;;;;;11.73;6.45;;;;;;;21.80;43.22;100929.41;1589036;89;25447;-70
2022/05/07 07:34:28;;;;;;;8.63;6.03;;;;;;;21.80;41.18;100930.00;1589103;90;25667;-70
2022/05/07 07:36:54;;;;;;;9.68;6.05;;;;;;;21.85;42.15;100933.81;1589002;89;25748;-70
2022/05/07 07:39:20;;;;;;;17.50;9.63;;;;;;;21.94;42.01;100921.93;1588837;90;25507;-70
2022/05/07 07:41:46;;;;;;;10.68;5.58;;;;;;;22.20;42.30;100928.02;1588264;89;27645;-71
2022/05/07 07:44:12;;;;;;;10.13;6.00;;;;;;;22.46;40.74;100931.11;1588648;89;26089;-70
2022/05/07 07:49:23;;;;;;;17.82;10.08;;;;;;;22.69;41.51;100926.87;1588936;90;25729;-71
2022/05/07 07:51:50;;;;;;;11.78;6.00;;;;;;;23.00;40.88;100920.09;1588973;89;25689;-71
2022/05/07 07:54:16;;;;;;;9.23;4.85;;;;;;;23.26;40.58;100924.73;1589003;89;27747;-71
2022/05/07 07:56:45;;;;;;;10.75;5.78;;;;;;;23.50;40.67;100921.97;1591182;87;26576;-71
2022/05/07 07:59:11;;;;;;;7.80;5.45;;;;;;;23.45;38.29;100925.67;1595361;90;25664;-71
2022/05/07 08:01:38;;;;;;;7.67;5.25;;;;;;;23.22;39.13;100922.50;1616569;87;25610;-71
2022/05/07 08:04:04;;;;;;;9.33;5.30;;;;;;;23.06;38.19;100922.76;1598310;88;26420;-70
2022/05/07 08:06:32;;;;;;;6.60;4.95;;;;;;;22.81;37.87;100921.09;1614705;87;28471;-71
2022/05/07 08:11:55;;;;;;;10.68;5.03;;;;;;;23.07;39.39;100924.36;1613337;88;25672;-68
2022/05/07 08:14:17;;;;;;;7.10;4.55;;;;;;;23.41;38.09;100930.36;1600755;89;25690;-70
2022/05/07 08:16:44;;;;;;;9.35;4.85;;;;;;;23.30;37.29;100915.88;1601650;89;25468;-70
2022/05/07 08:19:12;;;;;;;13.58;5.03;;;;;;;23.34;37.48;100917.88;1609715;88;27485;-71
2022/05/07 08:21:38;;;;;;;7.45;4.22;;;;;;;23.16;37.15;100921.87;1607095;88;25697;-72
2022/05/07 08:24:05;;;;;;;5.83;4.53;;;;;;;22.99;37.18;100913.61;1601581;88;25770;-71
2022/05/07 08:26:31;;;;;;;6.42;4.42;;;;;;;22.88;36.91;100925.89;1601573;89;25614;-72
2022/05/07 08:28:57;;;;;;;7.95;5.37;;;;;;;22.77;37.03;100919.48;1601630;89;25640;-71
2022/05/07 08:31:23;;;;;;;8.25;4.95;;;;;;;22.68;36.18;100914.23;1604531;88;28223;-71
2022/05/07 08:33:51;;;;;;;6.15;4.90;;;;;;;22.62;36.69;100915.77;1628629;88;25861;-73
2022/05/07 08:36:17;;;;;;;7.58;4.78;;;;;;;22.32;36.16;100915.19;1614982;88;25588;-73
2022/05/07 08:38:44;;;;;;;6.90;4.67;;;;;;;22.13;36.88;100918.85;1601375;89;26044;-72
2022/05/07 08:41:11;;;;;;;6.35;5.22;;;;;;;22.00;37.33;100922.42;1602405;88;25819;-73
2022/05/07 08:43:42;;;;;;;8.35;5.08;;;;;;;21.88;37.51;100917.11;1622713;88;27543;-72
2022/05/07 08:46:16;;;;;;;7.72;5.25;;;;;;;21.77;37.52;100919.72;1601042;89;25739;-72
2022/05/07 08:48:50;;;;;;;30.40;17.00;;;;;;;21.56;37.48;100916.84;1601111;87;25824;-72
2022/05/07 08:51:19;;;;;;;8.33;5.00;;;;;;;21.38;38.02;100912.38;1624047;88;26150;-73
2022/05/07 08:53:53;;;;;;;7.78;4.78;;;;;;;21.34;38.55;100913.50;1608996;88;25657;-74
2022/05/07 08:56:19;;;;;;;7.62;5.08;;;;;;;21.73;39.06;100912.78;1611512;84;27501;-74
2022/05/07 08:58:51;;;;;;;7.72;4.70;;;;;;;22.35;39.26;100915.23;1568006;91;25824;-73
2022/05/07 09:01:18;;;;;;;6.55;4.30;;;;;;;22.93;38.46;100913.13;1617669;88;25842;-73
2022/05/07 09:03:47;;;;;;;5.35;3.60;;;;;;;23.16;36.61;100921.28;1603741;88;25738;-74
2022/05/07 09:06:24;;;;;;;5.67;3.83;;;;;;;23.11;36.81;100921.03;1590127;88;25687;-73
2022/05/07 09:08:54;;;;;;;3.58;3.22;;;;;;;23.17;35.63;100914.58;1595201;89;27499;-74
2022/05/07 09:11:23;;;;;;;8.13;3.85;;;;;;;23.03;36.00;100926.24;1580449;89;25654;-74
2022/05/07 09:14:04;;;;;;;4.70;2.90;;;;;;;23.13;35.77;100916.52;1594362;88;25729;-73
2022/05/07 09:16:43;;;;;;;7.22;3.02;;;;;;;23.75;35.73;100917.23;1591247;89;26187;-73
2022/05/07 09:19:30;;;;;;;3.22;2.92;;;;;;;24.14;35.17;100913.13;1579484;89;25766;-73
2022/05/07 09:22:09;;;;;;;4.58;2.90;;;;;;;24.45;33.97;100915.86;1584698;89;27513;-73
2022/05/07 09:24:37;;;;;;;3.85;2.62;;;;;;;24.80;34.71;100919.34;1585719;89;30275;-73
2022/05/07 09:27:04;;;;;;;6.28;2.60;;;;;;;25.23;33.76;100928.90;1597229;89;25401;-72
2022/05/07 09:29:32;;;;;;;3.52;2.62;;;;;;;25.38;33.21;100915.89;1556566;91;26132;-72
2022/05/07 09:32:13;;;;;;;4.65;2.98;;;;;;;25.52;33.25;100909.77;1585364;89;25777;-68
2022/05/07 09:37:36;;;;;;;2.52;2.33;;;;;;;26.09;32.46;100909.48;1580692;89;25759;-69
2022/05/07 09:40:12;;;;;;;8.33;2.10;;;;;;;26.46;32.61;100906.77;1591807;89;25689;-65
2022/05/07 09:42:41;;;;;;;1.72;1.62;;;;;;;26.78;32.22;100902.47;1592951;89;26079;-68
2022/05/07 09:45:08;;;;;;;4.67;1.77;;;;;;;26.82;31.09;100908.77;1572257;89;25686;-68
2022/05/07 09:47:36;;;;;;;2.60;1.60;;;;;;;26.46;30.80;100906.77;1617453;88;28235;-69
2022/05/07 09:58:21;;;;;;;5.28;2.90;;;;;;;25.68;30.88;100905.79;1573451;85;26721;-65
2022/05/07 10:01:04;;;;;;;15.45;9.58;;;;;;;25.46;30.41;100893.34;1567803;91;27673;-67
2022/05/07 10:04:15;;;;;;;4.65;2.40;;;;;;;25.38;31.59;100895.13;1597057;89;25777;-70
2022/05/07 10:07:05;;;;;;;4.28;1.82;;;;;;;25.55;32.05;100890.16;1542800;91;25838;-67
2022/05/07 10:09:59;;;;;;;3.40;1.75;;;;;;;25.81;31.83;100882.02;1597570;89;25668;-65
2022/05/07 10:12:26;;;;;;;3.47;1.57;;;;;;;26.15;31.46;100880.14;1589868;89;25705;-67
2022/05/07 10:15:08;;;;;;;5.60;1.90;;;;;;;26.38;31.22;100877.48;1602332;88;27489;-67
2022/05/07 10:17:36;;;;;;;4.65;1.80;;;;;;;26.28;29.97;100878.50;1575798;89;25859;-67
2022/05/07 10:20:09;;;;;;;1.98;1.60;;;;;;;26.13;30.76;100876.20;1585864;89;25689;-67
2022/05/07 10:22:36;;;;;;;3.22;1.57;;;;;;;26.22;30.01;100872.39;1585338;89;25800;-66
2022/05/07 10:25:13;;;;;;;4.22;1.57;;;;;;;26.41;30.38;100871.14;1597345;89;25833;-70
2022/05/07 10:27:43;;;;;;;3.42;1.92;;;;;;;26.45;29.27;100864.36;1557698;91;27486;-68
2022/05/07 10:30:23;;;;;;;5.50;1.80;;;;;;;26.31;29.83;100858.91;1587006;89;25680;-67
2022/05/07 10:33:03;;;;;;;4.03;2.00;;;;;;;26.31;29.23;100860.29;1582781;89;25764;-65
2022/05/07 10:35:49;;;;;;;3.45;1.52;;;;;;;26.43;30.54;100862.59;1593734;89;25758;-65
2022/05/07 10:38:28;;;;;;;2.67;1.50;;;;;;;26.74;30.39;100859.28;1563071;91;25788;-67
2022/05/07 10:41:02;;;;;;;2.17;1.12;;;;;;;27.25;29.93;100859.69;1595721;89;27674;-68
2022/05/07 10:43:38;;;;;;;4.30;1.30;;;;;;;27.60;29.42;100852.23;1578903;89;25895;-67
2022/05/07 10:46:14;;;;;;;2.15;1.52;;;;;;;27.72;28.97;100855.87;1611224;87;25668;-69
2022/05/07 10:48:57;;;;;;;3.05;1.32;;;;;;;27.81;28.06;100856.18;1613168;88;25636;-66
2022/05/07 10:51:33;;;;;;;3.60;1.90;;;;;;;27.97;28.76;100857.63;1576472;89;25798;-68
2022/05/07 10:54:03;;;;;;;2.45;1.85;;;;;;;28.16;28.33;100856.97;1552121;92;27000;-64
2022/05/07 10:56:36;;;;;;;3.20;1.70;;;;;;;28.36;28.35;100861.29;1552114;87;25477;-66
2022/05/07 10:59:04;;;;;;;2.12;1.32;;;;;;;28.44;27.88;100853.03;1606414;88;25722;-67
2022/05/07 11:01:31;;;;;;;3.95;1.70;;;;;;;28.44;27.71;100859.20;1616053;88;25497;-67
2022/05/07 11:04:04;;;;;;;10.23;6.92;;;;;;;28.57;27.28;100858.86;1616165;88;25680;-66
2022/05/07 11:06:50;;;;;;;3.42;1.47;;;;;;;28.76;27.04;100862.14;1616018;87;27482;-66
2022/05/07 11:09:27;;;;;;;4.80;1.47;;;;;;;28.64;26.21;100858.75;1620004;87;25710;-68
2022/05/07 11:11:57;;;;;;;5.83;1.40;;;;;;;28.50;26.91;100861.69;1621278;88;25555;-68
2022/05/07 11:14:32;;;;;;;2.83;1.50;;;;;;;28.44;26.95;100859.98;1611781;88;25749;-67
2022/05/07 11:17:01;;;;;;;4.53;1.35;;;;;;;28.65;27.37;100852.57;1600112;88;25635;-68
2022/05/07 11:19:30;;;;;;;;;;;;;;;29.05;26.96;100847.19;1626277;87;27503;-67
2022/05/07 11:21:59;;;;;;;2.22;1.52;;;;;;;29.22;26.48;100853.08;1596525;89;25457;-67
2022/05/07 11:24:27;;;;;;;2.80;1.12;;;;;;;29.28;26.19;100846.41;1623741;87;25499;-68
2022/05/07 11:26:59;;;;;;;1.80;1.20;;;;;;;29.15;25.45;100849.59;1623731;87;25789;-68
2022/05/07 11:29:27;;;;;;;3.35;1.25;;;;;;;29.16;25.92;100845.60;1623529;87;25653;-67
2022/05/07 11:31:59;;;;;;;1.20;1.00;;;;;;;29.34;25.57;100845.34;1623660;87;27577;-67
2022/05/07 11:34:35;;;;;;;2.40;0.90;;;;;;;29.28;25.47;100841.45;1635075;86;25813;-67
2022/05/07 11:37:21;;;;;;;5.30;3.40;;;;;;;29.21;25.39;100840.97;1623540;87;25671;-67
2022/05/07 11:40:00;;;;;;;3.27;1.55;;;;;;;29.33;25.42;100840.34;1623771;88;25642;-66
2022/05/07 11:42:35;;;;;;;;;;;;;;;29.51;25.02;100832.27;1626318;87;25676;-66
2022/05/07 11:45:26;;;;;;;1.55;1.37;;;;;;;29.49;25.32;100834.69;1596729;89;27608;-66
2022/05/07 11:48:25;;;;;;;2.80;1.12;;;;;;;29.53;24.94;100839.61;1623879;87;25470;-67
2022/05/07 11:50:55;;;;;;;2.08;1.42;;;;;;;29.61;24.71;100829.91;1611983;89;25762;-66
2022/05/07 11:53:28;;;;;;;2.22;1.10;;;;;;;29.60;24.53;100832.50;1588765;90;25924;-67
2022/05/07 11:56:10;;;;;;;6.53;1.20;;;;;;;29.66;24.34;100816.87;1594899;89;25764;-66
2022/05/07 11:58:42;;;;;;;3.65;1.40;;;;;;;29.93;24.09;100822.33;1586063;89;27998;-68